Time;durP1;ratioP1;P1;durP2;ratioP2;P2;SDS_P1;SDS_P2;PMS_P1;PMS_P2;Temp;Humidity;BMP_temperature;BMP_pressure;BME280_temperature;BME280_humidity;BME280_pressure;Samples;Min_cycle;Max_cycle;Signal;HPM_P1;HPM_P2
2022/05/26 00:02:11;;;;;;;9.52;6.80;;;23.90;1.00;;;;;;5005767;28;20088;-48
2022/05/26 00:04:37;;;;;;;10.70;7.18;;;23.90;1.00;;;;;;5007204;28;20485;-52
2022/05/26 00:07:03;;;;;;;9.60;6.97;;;23.80;1.00;;;;;;5014575;28;20113;-48
2022/05/26 00:09:29;;;;;;;11.07;7.18;;;23.80;1.00;;;;;;5015289;28;20026;-47
2022/05/26 00:11:54;;;;;;;8.82;6.45;;;23.80;1.00;;;;;;5009425;28;20050;-51
2022/05/26 00:14:20;;;;;;;8.68;6.22;;;23.80;1.00;;;;;;5015982;28;20044;-51
2022/05/26 00:16:47;;;;;;;8.80;7.15;;;23.80;1.00;;;;;;5009207;28;20023;-51
2022/05/26 00:19:16;;;;;;;9.27;6.65;;;23.80;1.00;;;;;;5015430;28;20411;-49
2022/05/26 00:21:42;;;;;;;11.05;6.43;;;23.70;1.00;;;;;;5013774;28;20029;-47
2022/05/26 00:24:09;;;;;;;7.80;6.82;;;23.80;1.00;;;;;;5015314;28;20113;-47
2022/05/26 00:26:35;;;;;;;12.05;7.38;;;23.80;1.00;;;;;;5012881;28;20440;-52
2022/05/26 00:29:00;;;;;;;12.13;7.10;;;23.70;1.00;;;;;;5015428;28;20064;-48
2022/05/26 00:31:26;;;;;;;10.40;6.45;;;23.70;1.00;;;;;;5012924;28;20037;-48
2022/05/26 00:33:52;;;;;;;8.80;7.70;;;23.70;1.00;;;;;;5013501;28;20026;-46
2022/05/26 00:36:37;;;;;;;11.75;7.63;;;23.70;1.00;;;;;;5014835;28;20076;-47
2022/05/26 00:39:08;;;;;;;8.35;7.53;;;23.70;1.00;;;;;;4998798;28;20788;-48
2022/05/26 00:41:38;;;;;;;10.23;7.60;;;23.60;1.00;;;;;;5013987;28;21843;-46
2022/05/26 00:44:04;;;;;;;8.38;7.28;;;23.60;1.00;;;;;;5014483;28;20041;-47
2022/05/26 00:47:06;;;;;;;8.50;7.50;;;23.60;1.00;;;;;;5013850;28;20472;-47
2022/05/26 00:49:44;;;;;;;6.75;6.07;;;23.60;1.00;;;;;;5001758;28;20488;-49
2022/05/26 00:52:14;;;;;;;8.70;6.97;;;23.50;1.00;;;;;;5012355;28;20038;-49
2022/05/26 00:54:42;;;;;;;10.30;7.20;;;23.50;1.00;;;;;;5011209;28;20113;-46
2022/05/26 00:57:41;;;;;;;10.43;5.93;;;23.50;1.00;;;;;;5012996;28;20034;-46
2022/05/26 01:00:16;;;;;;;7.70;5.88;;;23.50;1.00;;;;;;5015276;28;20033;-47
2022/05/26 01:03:18;;;;;;;9.80;5.78;;;23.50;1.00;;;;;;5010206;28;20447;-47
2022/05/26 01:05:43;;;;;;;9.60;5.75;;;23.40;1.00;;;;;;5000112;28;20046;-46
2022/05/26 01:08:17;;;;;;;7.18;5.65;;;23.40;1.00;;;;;;5011688;28;20033;-48
2022/05/26 01:10:43;;;;;;;7.65;6.00;;;23.40;1.00;;;;;;5007808;28;20498;-48
2022/05/26 01:13:09;;;;;;;6.45;5.22;;;23.40;1.00;;;;;;5007690;28;20026;-48
2022/05/26 01:15:37;;;;;;;9.10;5.18;;;23.40;1.00;;;;;;5013204;28;20491;-50
2022/05/26 01:28:28;;;;;;;6.32;4.85;;;23.40;1.00;;;;;;4997036;28;20045;-49
2022/05/26 01:31:11;;;;;;;7.38;5.20;;;23.40;1.00;;;;;;4994889;28;20062;-46
2022/05/26 01:34:02;;;;;;;7.40;5.43;;;23.30;1.00;;;;;;5000746;28;20026;-47
2022/05/26 01:36:47;;;;;;;5.22;4.43;;;23.30;1.00;;;;;;5009259;28;20027;-47
2022/05/26 01:39:48;;;;;;;7.07;4.78;;;23.30;1.00;;;;;;5010888;28;20029;-47
2022/05/26 01:42:59;;;;;;;6.95;4.47;;;23.20;1.00;;;;;;5007521;28;20415;-46
2022/05/26 01:45:47;;;;;;;7.15;4.95;;;23.20;1.00;;;;;;5017302;28;20163;-46
2022/05/26 01:48:36;;;;;;;6.05;4.78;;;23.20;1.00;;;;;;5027181;28;20068;-48
2022/05/26 01:51:07;;;;;;;6.68;4.65;;;23.10;1.00;;;;;;5012946;28;20061;-48
2022/05/26 01:54:03;;;;;;;6.60;4.47;;;23.20;1.00;;;;;;5011129;28;20408;-50
2022/05/26 01:56:46;;;;;;;5.85;4.60;;;23.10;1.00;;;;;;5013600;28;20100;-47
2022/05/26 01:59:39;;;;;;;5.90;5.22;;;23.20;1.00;;;;;;5011665;28;20044;-48
2022/05/26 02:02:15;;;;;;;7.18;6.15;;;23.20;1.00;;;;;;5008259;28;20056;-50
2022/05/26 02:04:46;;;;;;;8.30;7.45;;;23.10;1.00;;;;;;5002023;28;20096;-48
2022/05/26 02:07:24;;;;;;;10.77;8.45;;;23.00;1.00;;;;;;5013704;28;20038;-47
2022/05/26 02:09:52;;;;;;;11.20;10.07;;;23.00;1.00;;;;;;5011930;28;20391;-50
2022/05/26 02:12:33;;;;;;;11.20;10.10;;;23.00;1.00;;;;;;5013098;28;20472;-49
2022/05/26 02:15:11;;;;;;;12.25;10.93;;;22.90;1.00;;;;;;5012203;28;20026;-51
2022/05/26 02:17:42;;;;;;;16.00;12.13;;;23.00;1.00;;;;;;5012606;28;20100;-49
2022/05/26 02:20:16;;;;;;;13.02;11.45;;;22.90;1.00;;;;;;5012169;28;20034;-47
2022/05/26 02:23:07;;;;;;;14.57;11.38;;;22.90;1.00;;;;;;5012922;28;20030;-50
2022/05/26 02:25:34;;;;;;;14.30;12.45;;;22.90;1.00;;;;;;4994219;28;20042;-47
2022/05/26 02:28:00;;;;;;;12.25;11.07;;;22.80;1.00;;;;;;5008536;28;20120;-49
2022/05/26 02:30:31;;;;;;;12.80;11.55;;;22.90;1.00;;;;;;5011664;28;20112;-47
2022/05/26 02:32:58;;;;;;;13.20;11.90;;;22.80;1.00;;;;;;5010206;28;20026;-46
2022/05/26 02:35:37;;;;;;;15.05;13.30;;;22.90;1.00;;;;;;5013105;28;20116;-48
2022/05/26 02:38:18;;;;;;;19.15;15.00;;;22.80;1.00;;;;;;5011919;28;20037;-49
2022/05/26 02:40:45;;;;;;;16.38;14.07;;;22.80;1.00;;;;;;5011778;28;20069;-49
2022/05/26 02:43:13;;;;;;;17.58;15.63;;;22.70;1.00;;;;;;5010387;28;20037;-48
2022/05/26 02:46:16;;;;;;;19.52;17.23;;;22.70;1.00;;;;;;5011849;28;20059;-49
2022/05/26 02:49:06;;;;;;;19.92;17.83;;;22.70;1.00;;;;;;5011216;28;20423;-48
2022/05/26 02:51:44;;;;;;;17.45;14.20;;;22.70;1.00;;;;;;5010974;28;20121;-48
2022/05/26 02:54:09;;;;;;;22.85;18.95;;;22.70;1.00;;;;;;5011497;28;20368;-46
2022/05/26 02:56:35;;;;;;;20.80;17.17;;;22.60;1.00;;;;;;5012862;28;20018;-48
2022/05/26 02:59:25;;;;;;;23.10;19.15;;;22.70;1.00;;;;;;5009350;28;20404;-47
2022/05/26 03:02:31;;;;;;;20.58;18.48;;;22.60;1.00;;;;;;5011766;28;20030;-49
2022/05/26 03:05:09;;;;;;;20.60;18.52;;;22.60;1.00;;;;;;5000536;28;20038;-47
2022/05/26 03:07:38;;;;;;;20.52;18.05;;;22.60;1.00;;;;;;5010679;28;20054;-48
2022/05/26 03:10:06;;;;;;;20.95;18.83;;;22.60;1.00;;;;;;5011651;28;20076;-47
2022/05/26 03:12:34;;;;;;;22.40;19.20;;;22.60;1.00;;;;;;5006141;28;20062;-50
2022/05/26 03:15:01;;;;;;;21.40;19.08;;;22.50;1.00;;;;;;5010692;28;20080;-49
2022/05/26 03:17:27;;;;;;;21.98;19.52;;;22.50;1.00;;;;;;5012185;28;20088;-47
2022/05/26 03:19:52;;;;;;;25.42;20.90;;;22.50;1.00;;;;;;5012157;28;20030;-47
2022/05/26 03:22:18;;;;;;;22.10;19.95;;;22.50;1.00;;;;;;5010491;28;20130;-46
2022/05/26 03:24:44;;;;;;;20.52;18.52;;;22.60;1.00;;;;;;5011833;28;20152;-49
2022/05/26 03:27:10;;;;;;;21.77;19.48;;;22.50;1.00;;;;;;5012351;28;20033;-46
2022/05/26 03:29:36;;;;;;;20.33;18.15;;;22.50;1.00;;;;;;5005623;28;20038;-46
2022/05/26 03:32:03;;;;;;;20.83;18.63;;;22.40;1.00;;;;;;5012970;28;20105;-46
2022/05/26 03:42:43;;;;;;;20.02;17.77;;;22.40;1.00;;;;;;5009272;28;19941;-46
2022/05/26 03:45:09;;;;;;;21.40;18.92;;;22.40;1.00;;;;;;5010441;28;20065;-46
2022/05/26 03:47:34;;;;;;;20.05;17.40;;;22.40;1.00;;;;;;5011927;28;20026;-46
2022/05/26 03:50:00;;;;;;;15.85;14.18;;;22.40;1.00;;;;;;4997188;28;20557;-49
2022/05/26 03:52:26;;;;;;;17.05;15.27;;;22.40;1.00;;;;;;5002668;28;20388;-47
2022/05/26 03:54:51;;;;;;;15.90;14.32;;;22.50;1.00;;;;;;4997656;28;20110;-49
2022/05/26 03:57:29;;;;;;;14.73;12.43;;;22.30;1.00;;;;;;4993002;28;20058;-49
2022/05/26 03:59:55;;;;;;;12.27;9.55;;;22.40;1.00;;;;;;5008154;28;20034;-47
2022/05/26 04:02:21;;;;;;;11.40;9.15;;;22.40;1.00;;;;;;5012543;28;20034;-54
2022/05/26 04:04:46;;;;;;;10.98;8.82;;;22.40;1.00;;;;;;5010640;28;20068;-52
2022/05/26 04:07:13;;;;;;;10.63;6.10;;;22.40;1.00;;;;;;5014086;28;20029;-49
2022/05/26 04:09:40;;;;;;;7.40;5.78;;;22.40;1.00;;;;;;5013926;28;20026;-52
2022/05/26 04:12:10;;;;;;;6.18;5.53;;;22.40;1.00;;;;;;5013409;28;20058;-51
2022/05/26 04:14:36;;;;;;;6.90;5.40;;;22.30;1.00;;;;;;5013871;28;20137;-49
2022/05/26 04:17:03;;;;;;;6.25;5.65;;;22.40;1.00;;;;;;5015212;28;20075;-47
2022/05/26 04:19:29;;;;;;;7.47;6.18;;;22.30;1.00;;;;;;5014826;28;20029;-50
2022/05/26 04:24:39;;;;;;;6.63;5.57;;;22.30;1.00;;;;;;5014763;28;20065;-50
2022/05/26 04:27:06;;;;;;;8.85;5.55;;;22.30;1.00;;;;;;5013954;28;20484;-46
2022/05/26 04:29:33;;;;;;;6.47;5.88;;;22.40;1.00;;;;;;5013562;28;20033;-49
2022/05/26 04:31:59;;;;;;;5.72;5.20;;;22.40;1.00;;;;;;5015875;28;20037;-47
2022/05/26 04:34:25;;;;;;;6.63;5.70;;;22.40;1.00;;;;;;5014959;28;20024;-48
2022/05/26 04:36:51;;;;;;;5.93;4.55;;;22.40;1.00;;;;;;5003272;28;20026;-52
2022/05/26 04:39:17;;;;;;;5.63;4.85;;;22.30;1.00;;;;;;5012329;28;20029;-46
2022/05/26 04:41:43;;;;;;;5.80;4.70;;;22.30;1.00;;;;;;5013716;28;20084;-50
2022/05/26 04:44:16;;;;;;;5.80;4.70;;;22.20;1.00;;;;;;5014275;28;20102;-52
2022/05/26 04:46:41;;;;;;;6.15;4.43;;;22.30;1.00;;;;;;5014894;28;20034;-50
2022/05/26 04:49:08;;;;;;;5.90;4.65;;;22.30;1.00;;;;;;5007949;28;20040;-46
2022/05/26 04:58:18;;;;;;;7.78;5.45;;;22.40;1.00;;;;;;5004300;28;20032;-45
2022/05/26 05:00:43;;;;;;;6.53;5.47;;;22.50;1.00;;;;;;5015084;28;20041;-46
2022/05/26 05:03:09;;;;;;;7.35;5.15;;;22.50;1.00;;;;;;5012394;28;20464;-46
2022/05/26 05:05:34;;;;;;;7.68;5.45;;;22.50;1.00;;;;;;5013757;28;20050;-47
2022/05/26 05:08:33;;;;;;;7.53;5.25;;;22.50;1.00;;;;;;5014320;28;20030;-50
2022/05/26 05:10:59;;;;;;;9.02;6.40;;;22.50;1.00;;;;;;5012055;28;20507;-48
2022/05/26 05:13:24;;;;;;;8.80;6.20;;;22.60;1.00;;;;;;5014365;28;20034;-50
2022/05/26 05:16:11;;;;;;;6.57;5.88;;;22.60;1.00;;;;;;5014619;28;20511;-48
2022/05/26 05:18:37;;;;;;;7.03;4.97;;;22.60;1.00;;;;;;5012794;28;20451;-50
2022/05/26 05:21:12;;;;;;;8.20;5.90;;;22.60;1.00;;;;;;5042444;28;20037;-47
2022/05/26 05:23:42;;;;;;;8.65;6.00;;;22.70;1.00;;;;;;5010608;28;20026;-47
2022/05/26 05:26:10;;;;;;;11.57;8.82;;;22.60;1.00;;;;;;5011229;28;20030;-47
2022/05/26 05:28:40;;;;;;;11.43;9.82;;;22.60;1.00;;;;;;5010629;28;20100;-51
2022/05/26 05:31:17;;;;;;;11.95;9.30;;;22.70;1.00;;;;;;5009550;28;20054;-50
2022/05/26 05:33:58;;;;;;;16.02;8.48;;;22.70;1.00;;;;;;5011307;28;20408;-51
2022/05/26 05:36:27;;;;;;;8.50;7.60;;;22.60;1.00;;;;;;5005121;28;20038;-49
2022/05/26 05:38:53;;;;;;;9.57;8.10;;;22.70;1.00;;;;;;5006910;28;20022;-48
2022/05/26 05:41:20;;;;;;;8.32;7.00;;;22.70;1.00;;;;;;5011034;28;20045;-49
2022/05/26 05:43:47;;;;;;;6.63;5.72;;;22.70;1.00;;;;;;4997018;28;20026;-48
2022/05/26 05:46:14;;;;;;;8.27;5.03;;;22.70;1.00;;;;;;5010113;28;20092;-49
2022/05/26 05:48:43;;;;;;;6.78;5.95;;;22.60;1.00;;;;;;5012638;28;20026;-49
2022/05/26 05:51:10;;;;;;;6.13;5.43;;;22.70;1.00;;;;;;5012152;28;20025;-49
2022/05/26 05:53:35;;;;;;;6.80;5.90;;;22.70;1.00;;;;;;5007643;28;20022;-49
2022/05/26 05:56:01;;;;;;;6.38;5.70;;;22.70;1.00;;;;;;5013440;28;20375;-48
2022/05/26 05:58:26;;;;;;;6.93;6.05;;;22.80;1.00;;;;;;5012838;28;20108;-47
2022/05/26 06:00:53;;;;;;;7.40;5.57;;;22.80;1.00;;;;;;5013863;28;20436;-47
2022/05/26 06:03:19;;;;;;;6.55;5.43;;;22.80;1.00;;;;;;5009702;28;20045;-48
2022/05/26 06:05:45;;;;;;;7.88;5.55;;;22.80;1.00;;;;;;5013278;28;20046;-47
2022/05/26 06:08:10;;;;;;;9.13;4.97;;;22.80;1.00;;;;;;5002353;28;20430;-49
2022/05/26 06:10:37;;;;;;;11.48;5.65;;;22.80;1.00;;;;;;5013593;28;20501;-51
2022/05/26 06:13:03;;;;;;;9.38;4.90;;;22.80;1.00;;;;;;5010700;28;20068;-50
2022/05/26 06:15:29;;;;;;;8.00;5.43;;;22.90;1.00;;;;;;5013171;28;20022;-48
2022/05/26 06:17:56;;;;;;;6.63;4.63;;;22.90;1.00;;;;;;5011579;28;20161;-49
2022/05/26 06:20:22;;;;;;;6.25;3.70;;;22.90;1.00;;;;;;5012886;28;20522;-48
2022/05/26 06:22:48;;;;;;;6.55;3.85;;;23.00;1.00;;;;;;5010729;28;20034;-49
2022/05/26 06:25:16;;;;;;;5.88;3.33;;;23.00;1.00;;;;;;5013377;28;20037;-47
2022/05/26 06:30:30;;;;;;;8.70;3.17;;;23.00;1.00;;;;;;5010045;28;20049;-47
2022/05/26 06:38:30;;;;;;;4.78;2.72;;;23.10;1.00;;;;;;5010564;28;20040;-47
2022/05/26 06:40:56;;;;;;;4.90;3.25;;;23.10;1.00;;;;;;5012764;28;20037;-52
2022/05/26 06:43:22;;;;;;;4.45;3.33;;;23.10;1.00;;;;;;5011381;28;20037;-48
2022/05/26 06:45:48;;;;;;;5.53;3.33;;;23.10;1.00;;;;;;5010924;28;20029;-50
2022/05/26 06:48:15;;;;;;;4.95;3.67;;;23.20;1.00;;;;;;5011027;28;20061;-48
2022/05/26 06:50:41;;;;;;;7.40;4.05;;;23.20;1.00;;;;;;5009222;28;20026;-48
2022/05/26 06:53:07;;;;;;;6.78;3.88;;;23.20;1.00;;;;;;5012092;28;20041;-49
2022/05/26 06:55:33;;;;;;;7.93;3.65;;;23.30;1.00;;;;;;5010890;28;20392;-47
2022/05/26 06:57:59;;;;;;;9.05;3.92;;;23.30;1.00;;;;;;5010395;28;20026;-50
2022/05/26 07:00:25;;;;;;;7.35;4.00;;;23.30;1.00;;;;;;5011139;28;22038;-48
2022/05/26 07:02:53;;;;;;;4.30;3.30;;;23.30;1.00;;;;;;5010271;28;20432;-50
2022/05/26 07:05:20;;;;;;;7.78;4.60;;;23.40;1.00;;;;;;5011933;28;20408;-50
2022/05/26 07:07:46;;;;;;;8.68;4.82;;;23.50;1.00;;;;;;5009871;28;20018;-49
2022/05/26 07:10:13;;;;;;;11.23;5.63;;;23.50;1.00;;;;;;5009512;28;20219;-48
2022/05/26 07:12:40;;;;;;;8.93;6.10;;;23.50;1.00;;;;;;5001537;28;20391;-49
2022/05/26 07:15:07;;;;;;;7.93;4.75;;;23.60;1.00;;;;;;5008215;28;20073;-49
2022/05/26 07:17:33;;;;;;;7.38;5.57;;;23.70;1.00;;;;;;5003926;28;20476;-50
2022/05/26 07:19:59;;;;;;;8.30;5.13;;;23.70;1.00;;;;;;5003734;28;20109;-51
2022/05/26 07:22:24;;;;;;;10.23;6.40;;;23.80;1.00;;;;;;5009511;28;20037;-48
2022/05/26 07:24:51;;;;;;;14.80;6.63;;;23.80;1.00;;;;;;5009840;28;20026;-50
2022/05/26 07:27:17;;;;;;;10.02;6.53;;;23.90;1.00;;;;;;5005217;28;20045;-51
2022/05/26 07:29:43;;;;;;;9.70;6.30;;;23.90;1.00;;;;;;5012744;28;20037;-52
2022/05/26 07:32:08;;;;;;;10.27;6.95;;;23.90;1.00;;;;;;5007286;28;20038;-53
2022/05/26 07:34:34;;;;;;;7.28;6.00;;;23.80;1.00;;;;;;5011694;28;20061;-52
2022/05/26 07:42:34;;;;;;;9.20;6.53;;;23.90;1.00;;;;;;5008911;28;19979;-53
2022/05/26 07:45:01;;;;;;;13.38;7.97;;;23.90;1.00;;;;;;5012152;28;20072;-46
2022/05/26 07:47:27;;;;;;;11.23;8.75;;;24.00;1.00;;;;;;5011709;28;20053;-46
2022/05/26 07:49:53;;;;;;;14.25;9.40;;;24.00;1.00;;;;;;5014830;28;20030;-46
2022/05/26 07:52:19;;;;;;;11.68;9.25;;;24.10;1.00;;;;;;5013116;28;20084;-49
2022/05/26 07:54:45;;;;;;;9.02;7.97;;;24.10;1.00;;;;;;5012256;28;20128;-49
2022/05/26 07:57:26;;;;;;;13.60;9.23;;;24.20;1.00;;;;;;5009530;28;20045;-50
2022/05/26 07:59:53;;;;;;;12.82;9.45;;;24.20;1.00;;;;;;5010130;28;20387;-49
2022/05/26 08:02:20;;;;;;;13.57;10.65;;;24.20;1.00;;;;;;5004817;28;20500;-51
2022/05/26 08:04:46;;;;;;;12.25;9.07;;;24.30;1.00;;;;;;5007195;28;20143;-51
2022/05/26 08:07:12;;;;;;;12.70;9.70;;;24.30;1.00;;;;;;5007947;28;20137;-49
2022/05/26 08:09:38;;;;;;;14.75;9.07;;;24.30;1.00;;;;;;5007562;28;20113;-48
2022/05/26 08:12:05;;;;;;;10.23;7.80;;;24.30;1.00;;;;;;5007824;28;20046;-51
2022/05/26 08:14:31;;;;;;;11.85;9.10;;;24.30;1.00;;;;;;5008722;28;20014;-50
2022/05/26 08:16:57;;;;;;;11.02;8.90;;;24.40;1.00;;;;;;5007545;28;20412;-51
2022/05/26 08:19:23;;;;;;;11.35;9.65;;;24.40;1.00;;;;;;5005167;28;20061;-47
2022/05/26 08:21:50;;;;;;;11.27;8.70;;;24.50;1.00;;;;;;5009473;28;20045;-51
2022/05/26 08:24:19;;;;;;;10.00;8.85;;;24.60;1.00;;;;;;5010189;28;20072;-48
2022/05/26 08:26:47;;;;;;;12.43;10.40;;;24.60;1.00;;;;;;5008681;28;20398;-48
2022/05/26 08:29:13;;;;;;;13.18;9.05;;;24.60;1.00;;;;;;5024677;28;20507;-47
2022/05/26 08:31:38;;;;;;;10.60;9.40;;;24.90;1.00;;;;;;5009470;28;20141;-46
2022/05/26 08:34:04;;;;;;;15.98;9.68;;;25.00;1.00;;;;;;5007943;28;20476;-46
2022/05/26 08:36:30;;;;;;;9.98;8.90;;;25.20;1.00;;;;;;5008827;28;20060;-47
2022/05/26 08:38:55;;;;;;;11.73;9.48;;;25.20;1.00;;;;;;5007993;28;20100;-50
2022/05/26 08:41:24;;;;;;;12.73;10.48;;;25.20;1.00;;;;;;5006147;28;20100;-46
2022/05/26 08:44:04;;;;;;;12.63;9.90;;;25.30;1.00;;;;;;5008357;28;20064;-46
2022/05/26 08:46:43;;;;;;;13.63;10.45;;;25.40;1.00;;;;;;5013289;28;20026;-48
2022/05/26 08:49:09;;;;;;;11.95;9.77;;;25.30;1.00;;;;;;5006846;28;20113;-49
2022/05/26 08:51:51;;;;;;;13.18;10.23;;;25.40;1.00;;;;;;5007073;28;20117;-47
2022/05/26 08:54:27;;;;;;;9.93;8.93;;;25.70;1.00;;;;;;5003947;28;20487;-48
2022/05/26 08:56:56;;;;;;;19.27;10.80;;;25.50;1.00;;;;;;5010882;28;20497;-50
2022/05/26 08:59:29;;;;;;;10.80;9.80;;;25.60;1.00;;;;;;5013515;28;20034;-50
2022/05/26 09:01:57;;;;;;;13.18;11.30;;;25.70;1.00;;;;;;5012309;28;20128;-47
2022/05/26 09:04:22;;;;;;;11.38;9.68;;;25.60;1.00;;;;;;5006483;28;20404;-50
2022/05/26 09:15:14;;;;;;;10.20;9.13;;;26.00;1.00;;;;;;5013423;28;19915;-49
2022/05/26 09:17:39;;;;;;;15.95;11.45;;;25.90;1.00;;;;;;5008145;28;20034;-49
2022/05/26 09:20:25;;;;;;;12.88;11.25;;;25.90;1.00;;;;;;5011523;28;20472;-48
2022/05/26 09:29:37;;;;;;;10.98;9.38;;;27.10;1.00;;;;;;5002552;28;20503;-48
2022/05/26 09:32:05;;;;;;;15.88;13.65;;;26.70;1.00;;;;;;5012725;28;20030;-52
2022/05/26 09:34:34;;;;;;;18.00;12.60;;;26.80;1.00;;;;;;5011260;28;20116;-51
2022/05/26 09:37:00;;;;;;;14.90;11.13;;;26.70;1.00;;;;;;5013060;28;20037;-47
2022/05/26 09:39:37;;;;;;;16.75;12.00;;;26.50;1.00;;;;;;5008157;28;20026;-50
2022/05/26 09:42:07;;;;;;;15.82;14.23;;;26.30;1.00;;;;;;5011128;28;20083;-50
2022/05/26 09:44:45;;;;;;;12.57;11.40;;;26.20;1.00;;;;;;5012435;28;20030;-51
2022/05/26 09:47:34;;;;;;;16.35;14.75;;;26.30;1.00;;;;;;5014556;28;20065;-49
2022/05/26 09:50:04;;;;;;;18.48;15.07;;;26.40;1.00;;;;;;5010218;28;20026;-47
2022/05/26 09:52:46;;;;;;;16.98;15.10;;;26.50;1.00;;;;;;5013165;28;20445;-47
2022/05/26 09:55:28;;;;;;;13.52;12.13;;;26.60;1.00;;;;;;4994147;28;20069;-51
2022/05/26 09:58:04;;;;;;;15.07;12.95;;;26.60;1.00;;;;;;5009153;28;20508;-49
2022/05/26 10:00:32;;;;;;;15.05;13.55;;;26.80;1.00;;;;;;4993037;28;20125;-47
2022/05/26 10:03:01;;;;;;;16.02;14.32;;;27.20;1.00;;;;;;5006180;28;20034;-49
2022/05/26 10:05:35;;;;;;;16.42;14.52;;;27.20;1.00;;;;;;5010077;28;20046;-48
2022/05/26 10:08:19;;;;;;;15.77;13.10;;;26.90;1.00;;;;;;5010172;28;20030;-49
2022/05/26 10:11:05;;;;;;;15.38;11.70;;;26.80;1.00;;;;;;5011168;28;20096;-48
2022/05/26 10:14:17;;;;;;;14.35;12.57;;;27.60;1.00;;;;;;5011631;28;20109;-48
2022/05/26 10:17:00;;;;;;;16.77;13.43;;;27.50;1.00;;;;;;5005741;28;20037;-51
2022/05/26 10:19:44;;;;;;;15.45;13.63;;;27.30;1.00;;;;;;5001738;28;20037;-50
2022/05/26 10:22:38;;;;;;;16.80;14.82;;;27.60;1.00;;;;;;5003617;28;20115;-50
2022/05/26 10:25:10;;;;;;;;;;;27.50;1.00;;;;;;5007354;28;20065;-50
2022/05/26 10:27:59;;;;;;;15.63;11.95;;;27.80;1.00;;;;;;5011609;28;19917;-49
2022/05/26 10:30:52;;;;;;;17.35;13.93;;;28.10;1.00;;;;;;5007435;28;20112;-47
2022/05/26 10:33:34;;;;;;;17.42;13.80;;;27.70;1.00;;;;;;5009876;28;20028;-47
2022/05/26 10:36:18;;;;;;;13.25;11.70;;;27.60;1.00;;;;;;5011378;28;20106;-51
2022/05/26 10:38:53;;;;;;;14.63;13.17;;;27.90;1.00;;;;;;5012014;28;20109;-49
2022/05/26 10:41:21;;;;;;;16.05;14.40;;;28.00;1.00;;;;;;5000583;28;20391;-49
2022/05/26 10:43:59;;;;;;;13.40;11.93;;;27.80;1.00;;;;;;5010352;28;20022;-48
2022/05/26 10:46:28;;;;;;;16.40;14.05;;;27.80;1.00;;;;;;5010347;28;20129;-50
2022/05/26 10:49:26;;;;;;;13.23;11.05;;;27.70;1.00;;;;;;5011798;28;20026;-50
2022/05/26 10:52:17;;;;;;;14.48;11.70;;;28.10;1.00;;;;;;5010786;28;20500;-48
2022/05/26 10:55:04;;;;;;;17.88;12.07;;;28.50;1.00;;;;;;5008827;28;20046;-48
2022/05/26 10:57:48;;;;;;;16.55;11.43;;;28.80;1.00;;;;;;5011571;28;20049;-49
2022/05/26 11:00:15;;;;;;;;;;;29.00;1.00;;;;;;5010582;28;20037;-47
2022/05/26 11:03:13;;;;;;;12.43;10.18;;;29.10;1.00;;;;;;5006216;28;19924;-49
2022/05/26 11:05:45;;;;;;;17.02;11.90;;;29.30;1.00;;;;;;4997106;28;20042;-49
2022/05/26 11:08:28;;;;;;;14.43;10.02;;;29.30;1.00;;;;;;5008348;28;20484;-47
2022/05/26 11:11:04;;;;;;;13.25;11.52;;;29.20;1.00;;;;;;5010324;28;20160;-49
2022/05/26 11:13:53;;;;;;;11.50;10.25;;;29.40;1.00;;;;;;5010635;28;20048;-49
2022/05/26 11:19:23;;;;;;;12.80;11.40;;;29.70;1.00;;;;;;5010272;28;20076;-48
2022/05/26 11:21:51;;;;;;;13.68;12.27;;;29.40;1.00;;;;;;5012949;28;20033;-48
2022/05/26 11:24:17;;;;;;;13.27;11.88;;;29.70;1.00;;;;;;5001114;28;20030;-49
2022/05/26 11:27:11;;;;;;;11.68;10.00;;;29.30;1.00;;;;;;5014218;28;20084;-48
2022/05/26 11:29:44;;;;;;;10.87;9.23;;;29.60;1.00;;;;;;5007835;28;20026;-49
2022/05/26 11:37:58;;;;;;;12.55;11.10;;;31.60;1.00;;;;;;5012906;28;20036;-47
2022/05/26 11:40:35;;;;;;;15.02;13.52;;;31.70;1.00;;;;;;5014353;28;20053;-45
2022/05/26 11:43:02;;;;;;;16.40;11.57;;;32.30;1.00;;;;;;5014350;28;20034;-50
2022/05/26 11:45:33;;;;;;;13.80;12.52;;;32.40;1.00;;;;;;5015238;28;20479;-52
2022/05/26 11:48:31;;;;;;;14.80;13.07;;;32.10;1.00;;;;;;5015623;28;20469;-46
2022/05/26 11:51:12;;;;;;;12.73;11.43;;;31.50;1.00;;;;;;5018693;28;20035;-47
2022/05/26 11:53:46;;;;;;;14.48;11.48;;;31.60;1.00;;;;;;5012719;28;20052;-51
2022/05/26 11:56:24;;;;;;;12.95;11.65;;;31.00;1.00;;;;;;5014728;28;20056;-48
2022/05/26 11:59:21;;;;;;;14.15;12.75;;;30.60;1.00;;;;;;5005777;28;20049;-47
2022/05/26 12:01:59;;;;;;;14.43;12.73;;;32.20;1.00;;;;;;5004560;28;20105;-49
2022/05/26 12:04:30;;;;;;;14.70;11.35;;;32.70;1.00;;;;;;5003121;28;20046;-47
2022/05/26 12:07:04;;;;;;;15.07;11.30;;;31.10;1.00;;;;;;5010768;28;20026;-47
2022/05/26 12:09:48;;;;;;;15.30;12.55;;;30.80;1.00;;;;;;4999078;28;20030;-48
2022/05/26 12:12:17;;;;;;;;;;;30.80;1.00;;;;;;5019661;28;20030;-51
2022/05/26 12:14:45;;;;;;;16.90;13.02;;;31.60;1.00;;;;;;5004037;28;20008;-48
2022/05/26 12:17:26;;;;;;;14.07;11.00;;;32.40;1.00;;;;;;5002399;28;20042;-48
2022/05/26 12:30:01;;;;;;;14.48;10.10;;;32.80;1.00;;;;;;5002643;28;20081;-51
2022/05/26 12:32:34;;;;;;;16.75;11.82;;;33.00;1.00;;;;;;5011149;28;20030;-47
2022/05/26 12:35:05;;;;;;;11.30;10.10;;;33.30;1.00;;;;;;5006078;28;20039;-49
2022/05/26 12:37:40;;;;;;;14.52;11.27;;;33.50;1.00;;;;;;5002187;28;20076;-49
2022/05/26 12:40:44;;;;;;;12.77;10.57;;;34.10;1.00;;;;;;4998496;28;20045;-49
2022/05/26 12:43:27;;;;;;;;;;;34.70;1.00;;;;;;5001905;28;20054;-49
2022/05/26 12:46:10;;;;;;;13.93;9.90;;;34.40;1.00;;;;;;4996160;28;20308;-50
2022/05/26 12:48:45;;;;;;;10.90;9.27;;;35.00;1.00;;;;;;5006315;28;20034;-53
2022/05/26 12:51:13;;;;;;;11.65;10.27;;;34.10;1.00;;;;;;5001801;28;20026;-50
2022/05/26 12:53:49;;;;;;;12.57;10.85;;;33.50;1.00;;;;;;5004925;28;20027;-48
2022/05/26 12:56:29;;;;;;;12.00;9.95;;;34.80;1.00;;;;;;5007394;28;20039;-50
2022/05/26 12:58:59;;;;;;;11.85;10.65;;;34.10;1.00;;;;;;5004988;28;20096;-48
2022/05/26 13:01:27;;;;;;;10.60;9.50;;;35.70;1.00;;;;;;5001734;28;20041;-49
2022/05/26 13:07:16;;;;;;;10.38;9.23;;;35.80;1.00;;;;;;5000536;28;20076;-48
2022/05/26 13:09:51;;;;;;;14.65;9.43;;;35.90;1.00;;;;;;5007008;28;20026;-46
2022/05/26 13:12:25;;;;;;;11.93;10.20;;;34.70;1.00;;;;;;5001010;28;20030;-48
2022/05/26 13:14:54;;;;;;;9.63;8.70;;;34.90;1.00;;;;;;5003773;28;20026;-50
2022/05/26 13:17:26;;;;;;;12.55;10.65;;;34.30;1.00;;;;;;5005058;28;20546;-50
2022/05/26 13:19:55;;;;;;;10.95;9.95;;;34.70;1.00;;;;;;5007243;28;20122;-51
2022/05/26 13:22:32;;;;;;;13.40;10.82;;;34.90;1.00;;;;;;5004181;28;20034;-50
2022/05/26 13:25:06;;;;;;;11.57;10.40;;;34.90;1.00;;;;;;5005907;28;20461;-49
2022/05/26 13:27:49;;;;;;;13.30;11.27;;;34.70;1.00;;;;;;5007763;28;20034;-48
2022/05/26 13:33:09;;;;;;;13.85;9.82;;;34.90;1.00;;;;;;5009466;28;20096;-47
2022/05/26 13:35:58;;;;;;;14.25;9.35;;;35.00;1.00;;;;;;5012646;28;20026;-53
2022/05/26 13:38:34;;;;;;;14.05;8.82;;;35.40;1.00;;;;;;5010533;28;20030;-49
2022/05/26 13:41:02;;;;;;;13.05;10.50;;;35.60;1.00;;;;;;5013137;28;20139;-49
2022/05/26 13:43:29;;;;;;;12.50;10.38;;;34.90;1.00;;;;;;5009925;28;20030;-48
2022/05/26 13:45:56;;;;;;;10.05;8.48;;;34.70;1.00;;;;;;5013473;28;20537;-53
2022/05/26 13:48:36;;;;;;;10.30;9.35;;;34.10;1.00;;;;;;5013292;28;20399;-51
2022/05/26 13:51:15;;;;;;;10.35;8.63;;;33.60;1.00;;;;;;5012078;28;20037;-49
2022/05/26 13:53:46;;;;;;;8.07;7.28;;;33.20;1.00;;;;;;5006873;28;20029;-51
2022/05/26 13:56:26;;;;;;;11.75;7.68;;;33.20;1.00;;;;;;5008459;28;20994;-50
2022/05/26 13:58:54;;;;;;;11.07;7.03;;;33.90;1.00;;;;;;5007140;28;20036;-50
2022/05/26 14:01:24;;;;;;;10.68;8.38;;;34.60;1.00;;;;;;5006595;28;20048;-50
2022/05/26 14:03:55;;;;;;;10.82;8.55;;;35.00;1.00;;;;;;5006195;28;20510;-48
2022/05/26 14:06:30;;;;;;;13.57;8.30;;;34.90;1.00;;;;;;5005347;28;20046;-51
2022/05/26 14:08:58;;;;;;;13.63;7.93;;;35.20;1.00;;;;;;4999006;28;20484;-49
2022/05/26 14:11:37;;;;;;;16.10;8.63;;;35.30;1.00;;;;;;5007040;28;20030;-50
2022/05/26 14:14:29;;;;;;;9.13;8.07;;;35.40;1.00;;;;;;5009598;28;20034;-49
2022/05/26 14:16:56;;;;;;;12.27;9.05;;;35.40;1.00;;;;;;5008604;28;20038;-51
2022/05/26 14:19:30;;;;;;;11.73;8.25;;;35.40;1.00;;;;;;5012984;28;20026;-50
2022/05/26 14:21:56;;;;;;;7.72;6.68;;;35.20;1.00;;;;;;5010872;28;20048;-51
2022/05/26 14:24:24;;;;;;;11.10;8.00;;;35.10;1.00;;;;;;5013845;28;20153;-49
2022/05/26 14:27:16;;;;;;;8.07;7.00;;;34.30;1.00;;;;;;5011863;28;20053;-51
2022/05/26 14:29:46;;;;;;;10.15;8.95;;;33.90;1.00;;;;;;4993896;28;20030;-47
2022/05/26 14:32:28;;;;;;;11.80;7.57;;;34.10;1.00;;;;;;4999654;28;20026;-51
2022/05/26 14:34:57;;;;;;;12.43;8.02;;;34.50;1.00;;;;;;5011165;28;20129;-50
2022/05/26 14:37:25;;;;;;;14.68;7.00;;;35.20;1.00;;;;;;5006128;28;20038;-49
2022/05/26 14:39:52;;;;;;;11.30;7.00;;;35.30;1.00;;;;;;5011456;28;20034;-49